• Join FlightAware (Why Join?)
  • Login
  • US Flag 
02:13PM EDT


 

Airport Tracker/Info


-or-


 

Live Flight TrackerFlight Track Log ✈ AAL61 ✈ 19-Mar-2012 ✈ KDFW - RJAA / NRT

Flight Track Log - Related Links

Times and Time Zones

All times are in EDT time to prevent confusion due to time zone crossing. See the AAL61 flight status page for this flight to view local times or setup timezone preferences in your user account.

Time Position Orientation Groundspeed Altitude Reporting Facility
EDT Latitude Longitude Course Direction KTS MPH feet Rate Location/Type
02:14PM 32.8621 -97.0248 163° South  Level FlightAware Approximate
02:15PM 32.7593 -96.9613 332° Northwest  Level FlightAware Approximate
02:15PM 32.8542 -97.0219 163° South 169 194 2,400  Level FAA TRACON SMA TRACON (SMA)
02:16PM 32.7989 -97.0019 161° South 216 249 4,100 2,100 Climbing FAA TRACON SMA TRACON (SMA)
02:17PM 32.7606 -96.9858 113° Southeast 213 245 5,900 2,100 Climbing FAA TRACON SMA TRACON (SMA)
02:18PM 32.7417 -96.9331 73° East 270 311 6,900 1,560 Climbing FAA TRACON SMA TRACON (SMA)
02:18PM 32.7569 -96.8750 26° Northeast 313 360 8,000 1,680 Climbing FAA TRACON SMA TRACON (SMA)
02:19PM 32.8125 -96.8425 360° North 334 384 9,200 1,860 Climbing FAA TRACON SMA TRACON (SMA)
02:20PM 32.8772 -96.8428 349° North 337 388 10,500 1,560 Climbing FAA TRACON SMA TRACON (SMA)
02:20PM 32.9356 -96.8564 350° North 348 400 11,300 1,560 Climbing FAA TRACON SMA TRACON (SMA)
02:21PM 33.0044 -96.8708 350° North 364 419 12,600 1,680 Climbing FAA TRACON SMA TRACON (SMA)
02:22PM 33.0764 -96.8861 350° North 378 435 13,600 1,680 Climbing FAA TRACON SMA TRACON (SMA)
02:22PM 33.1406 -96.9000 350° North 379 436 14,900 1,800 Climbing FAA TRACON SMA TRACON (SMA)
02:23PM 33.2133 -96.9158 349° North 384 442 16,000 1,740 Climbing FAA TRACON SMA TRACON (SMA)
02:24PM 33.2881 -96.9328 350° North 393 452 17,200 2,160 Climbing FAA TRACON SMA TRACON (SMA)
02:24PM 33.3556 -96.9469 351° North 396 456 18,900 1,680 Climbing FAA TRACON SMA TRACON (SMA)
02:25PM 33.4325 -96.9611 349° North 404 465 19,500 1,500 Climbing FAA TRACON SMA TRACON (SMA)
02:26PM 33.5117 -96.9789 348° North 414 476 21,000 1,680 Climbing FAA TRACON SMA TRACON (SMA)
02:26PM 33.5817 -96.9967 339° North 417 480 21,800 1,440 Climbing FAA TRACON SMA TRACON (SMA)
02:27PM 33.6558 -97.0314 334° Northwest 412 474 22,900 1,380 Climbing FAA TRACON SMA TRACON (SMA)
02:28PM 33.7186 -97.0683 336° Northwest 409 471 23,700 1,140 Climbing FAA TRACON SMA TRACON (SMA)
02:28PM 33.7922 -97.1086 337° Northwest 417 480 24,500 1,440 Climbing FAA TRACON SMA TRACON (SMA)
02:29PM 33.8667 -97.1475 337° Northwest 418 481 25,700 1,200 Climbing FAA TRACON SMA TRACON (SMA)
02:30PM 33.9161 -97.1728 336° Northwest 417 480 26,100 720 Climbing FAA TRACON SMA TRACON (SMA)
02:31PM 34.0375 -97.2381 336° Northwest 422 486 26,900 900 Climbing Fort Worth Center
02:32PM 34.1461 -97.2956 336° Northwest 432 497 27,900 900 Climbing Fort Worth Center
02:33PM 34.2608 -97.3583 337° Northwest 432 497 28,800 840 Climbing Fort Worth Center
02:34PM 34.3758 -97.4186 336° Northwest 443 510 29,600 660 Climbing Fort Worth Center
02:35PM 34.4800 -97.4739 337° Northwest 443 510 30,200 420 Climbing Fort Worth Center
02:36PM 34.6011 -97.5372 335° Northwest 453 521 30,500 360 Climbing Fort Worth Center
02:37PM 34.7239 -97.6056 338° Northwest 465 535 31,000 480 Climbing Fort Worth Center
02:38PM 34.8511 -97.6692 335° Northwest 481 554 31,500 480 Climbing Fort Worth Center
02:39PM 34.9783 -97.7406 336° Northwest 492 566 32,000 240 Climbing Fort Worth Center
02:40PM 35.1219 -97.8172 336° Northwest 499 574 32,000  Level Fort Worth Center
02:41PM 35.2531 -97.8889 336° Northwest 507 583 32,000  Level Fort Worth Center
02:43PM 35.5489 -98.0494 336° Northwest 508 585 32,000  Level Kansas City Center
02:44PM 35.6825 -98.1217 337° Northwest 513 590 32,000  Level Kansas City Center
02:45PM 35.8181 -98.1919 335° Northwest 513 590 32,000  Level Kansas City Center
02:46PM 35.9511 -98.2675 336° Northwest 518 596 32,000  Level Kansas City Center
02:47PM 36.0886 -98.3436 337° Northwest 518 596 32,000  Level Kansas City Center
02:48PM 36.2261 -98.4172 336° Northwest 528 608 32,000  Level Kansas City Center
02:49PM 36.3653 -98.4939 335° Northwest 534 615 32,000  Level Kansas City Center
02:50PM 36.5044 -98.5733 335° Northwest 540 621 32,000  Level Kansas City Center
02:51PM 36.6436 -98.6531 335° Northwest 540 621 32,000  Level Kansas City Center
02:52PM 36.7828 -98.7333 337° Northwest 540 621 32,000  Level Kansas City Center
02:53PM 36.9219 -98.8083 334° Northwest 540 621 32,000  Level Kansas City Center
02:54PM 37.0628 -98.8944 336° Northwest 540 621 32,000  Level Kansas City Center
02:55PM 37.2017 -98.9728 335° Northwest 547 629 32,000  Level Kansas City Center
02:56PM 37.3444 -99.0569 336° Northwest 554 638 32,000  Level Kansas City Center
02:57PM 37.4875 -99.1364 335° Northwest 560 644 32,000  Level Kansas City Center
02:58PM 37.6425 -99.2269 335° Northwest 560 644 32,000  Level Kansas City Center
02:59PM 37.7853 -99.3097 336° Northwest 560 644 32,000  Level Kansas City Center
03:00PM 37.9258 -99.3897 336° Northwest 560 644 32,000  Level Kansas City Center
03:01PM 38.0728 -99.4733 335° Northwest 560 644 32,000  Level Kansas City Center
03:02PM 38.1967 -99.5475 335° Northwest 554 638 32,000  Level Kansas City Center
03:03PM 38.3556 -99.6406 335° Northwest 567 652 32,000  Level Kansas City Center
03:05PM 38.6581 -99.8197 335° Northwest 571 657 32,000  Level Denver Center
03:06PM 38.8203 -99.9189 335° Northwest 571 657 32,000  Level Denver Center
03:07PM 38.9650 -100.0069 336° Northwest 576 663 32,000  Level Denver Center
03:08PM 39.0986 -100.0828 335° Northwest 581 669 32,000  Level Denver Center
03:09PM 39.2561 -100.1756 334° Northwest 574 661 32,000  Level Denver Center
03:10PM 39.4031 -100.2669 335° Northwest 574 661 32,000  Level Denver Center
03:11PM 39.5367 -100.3467 334° Northwest 574 661 32,000  Level Denver Center
03:12PM 39.6856 -100.4414 335° Northwest 580 667 32,000  Level Denver Center
03:13PM 39.8494 -100.5406 334° Northwest 587 676 32,000  Level Denver Center
03:14PM 39.9961 -100.6336 334° Northwest 592 681 32,000  Level Denver Center
03:15PM 40.1294 -100.7172 334° Northwest 592 681 32,000  Level Denver Center
03:16PM 40.2783 -100.8133 334° Northwest 592 681 32,000  Level Denver Center
03:17PM 40.4419 -100.9169 334° Northwest 592 681 32,000  Level Denver Center
03:18PM 40.5883 -101.0117 335° Northwest 592 681 32,000  Level Denver Center
03:19PM 40.7408 -101.1061 333° Northwest 592 681 32,000  Level Denver Center
03:20PM 40.8742 -101.1942 334° Northwest 597 687 32,000  Level Denver Center
03:21PM 41.0247 -101.2925 334° Northwest 597 687 32,000  Level Denver Center
03:22PM 41.1903 -101.4008 334° Northwest 597 687 32,000  Level Denver Center
03:23PM 41.3406 -101.5000 334° Northwest 597 687 32,000  Level Denver Center
03:24PM 41.4778 -101.5894 334° Northwest 604 695 32,000  Level Denver Center
03:25PM 41.6278 -101.6867 333° Northwest 604 695 32,000  Level Denver Center
03:26PM 41.7931 -101.7997 333° Northwest 604 695 32,000  Level Denver Center
03:27PM 41.9431 -101.9006 334° Northwest 609 701 32,000  Level Denver Center
03:28PM 42.0800 -101.9917 334° Northwest 614 707 32,000  Level Denver Center
03:29PM 42.2319 -102.0933 335° Northwest 614 707 32,000  Level Denver Center
03:30PM 42.4006 -102.2000 333° Northwest 610 702 32,000  Level Denver Center
03:31PM 42.5481 -102.3028 334° Northwest 604 695 32,000  Level Denver Center
03:32PM 42.7019 -102.4058 334° Northwest 604 695 32,000  Level Denver Center
03:33PM 42.8406 -102.4989 333° Northwest 617 710 32,000  Level Denver Center
03:34PM 43.0092 -102.6158 333° Northwest 617 710 32,000  Level Denver Center
03:35PM 43.1564 -102.7208 333° Northwest 617 710 32,000  Level Denver Center
03:36PM 43.2950 -102.8181 334° Northwest 612 704 32,000  Level Denver Center
03:37PM 43.4525 -102.9261 333° Northwest 618 711 32,000  Level Denver Center
03:38PM 43.6164 -103.0428 333° Northwest 613 705 32,000  Level Denver Center
03:39PM 43.7694 -103.1492 332° Northwest 613 705 32,000  Level Denver Center
03:40PM 43.9053 -103.2486 333° Northwest 617 710 32,000  Level Denver Center
03:41PM 44.0689 -103.3642 333° Northwest 612 704 32,000  Level Denver Center
03:42PM 44.2194 -103.4722 332° Northwest 612 704 32,000  Level Denver Center
03:43PM 44.3722 -103.5836 332° Northwest 612 704 32,000  Level Denver Center
03:44PM 44.5078 -103.6847 332° Northwest 619 712 32,000  Level Denver Center
03:46PM 44.7675 -103.8761 332° Northwest 603 694 32,000  Level Salt Lake Center
03:47PM 44.9086 -103.9808 332° Northwest 602 693 32,000  Level Salt Lake Center
03:48PM 45.0736 -104.1039 332° Northwest 602 693 32,000  Level Salt Lake Center
03:49PM 45.2114 -104.2086 332° Northwest 603 694 32,000  Level Salt Lake Center
03:50PM 45.3603 -104.3214 332° Northwest 606 697 32,000  Level Salt Lake Center
03:51PM 45.5094 -104.4342 332° Northwest 607 699 32,000  Level Salt Lake Center
03:52PM 45.6786 -104.5639 332° Northwest 608 700 32,000  Level Salt Lake Center
03:53PM 45.8206 -104.6739 332° Northwest 608 700 32,000  Level Salt Lake Center
03:54PM 45.9836 -104.8011 332° Northwest 603 694 32,000  Level Salt Lake Center
03:55PM 46.1211 -104.9086 331° Northwest 596 686 32,000  Level Salt Lake Center
03:56PM 46.2800 -105.0339 331° Northwest 589 678 32,000 -60 Level Salt Lake Center
03:57PM 46.4175 -105.1431 331° Northwest 589 678 31,900 -540 Descending Salt Lake Center
03:58PM 46.5769 -105.2697 331° Northwest 588 677 30,900 -900 Descending Salt Lake Center
03:59PM 46.6994 -105.3694 331° Northwest 589 678 30,100 -480 Descending Salt Lake Center
04:00PM 46.8728 -105.5083 331° Northwest 591 680 30,000 -60 Descending Salt Lake Center
04:01PM 47.0144 -105.6239 331° Northwest 587 676 30,000  Level Salt Lake Center
04:02PM 47.1519 -105.7361 331° Northwest 576 663 30,000  Level Salt Lake Center
04:03PM 47.2858 -105.8450 331° Northwest 563 648 30,000  Level Salt Lake Center
04:04PM 47.4178 -105.9550 331° Northwest 553 636 30,000  Level Salt Lake Center
04:05PM 47.5497 -106.0639 331° Northwest 548 631 30,000  Level Salt Lake Center
04:06PM 47.6797 -106.1722 331° Northwest 541 623 30,000  Level Salt Lake Center
04:07PM 47.8342 -106.3014 330° Northwest 533 613 30,000  Level Salt Lake Center
04:08PM 47.9594 -106.4083 331° Northwest 524 603 30,000  Level Salt Lake Center
04:10PM 48.0867 -106.5133 330° Northwest 523 602 30,000  Level Salt Lake Center
04:11PM 48.2111 -106.6197 321° Northwest 520 598 30,000  Level Salt Lake Center
04:12PM 48.3175 -106.7492 319° Northwest 504 580 30,000  Level Salt Lake Center
04:13PM 48.4217 -106.8844 320° Northwest 504 580 30,000  Level Salt Lake Center
04:14PM 48.5261 -107.0183 320° Northwest 496 571 30,000  Level Salt Lake Center
04:15PM 48.6528 -107.1794 319° Northwest 495 570 30,000  Level Salt Lake Center
04:16PM 48.7561 -107.3147 319° Northwest 494 568 30,000  Level Salt Lake Center
04:17PM 48.8594 -107.4494 320° Northwest 492 566 30,000  Level Salt Lake Center
04:18PM 48.9628 -107.5825 311° West 490 564 30,000  Level Salt Lake Center
04:19PM 49.0667 -107.7667 318° Northwest 480 552 30,000  Level Winnipeg Center
04:20PM 49.1500 -107.8833 320° Northwest 480 552 30,000  Level Winnipeg Center
04:21PM 49.2667 -108.0333 319° Northwest 490 564 30,000  Level Winnipeg Center
04:22PM 49.3667 -108.1667 319° Northwest 490 564 30,000  Level Winnipeg Center
04:22PM 49.4167 -108.2333 319° Northwest 480 552 30,000  Level Edmonton Center
04:23PM 49.5167 -108.3667 319° Northwest 480 552 30,000  Level Edmonton Center
04:24PM 49.6167 -108.5000 319° Northwest 480 552 30,000  Level Edmonton Center
04:25PM 49.7167 -108.6333 316° Northwest 470 541 30,000  Level Edmonton Center
04:26PM 49.8167 -108.7833 322° Northwest 470 541 30,000  Level Edmonton Center
04:27PM 49.9000 -108.8833 317° Northwest 470 541 30,000  Level Edmonton Center
04:28PM 50.0167 -109.0500 323° Northwest 470 541 30,000  Level Edmonton Center
04:29PM 50.1167 -109.1667 311° West 470 541 30,000  Level Edmonton Center
04:30PM 50.2000 -109.3167 320° Northwest 470 541 30,000  Level Edmonton Center
04:31PM 50.3000 -109.4500 316° Northwest 470 541 30,000  Level Edmonton Center
04:32PM 50.4000 -109.6000 320° Northwest 460 529 30,000  Level Edmonton Center
04:33PM 50.5000 -109.7333 318° Northwest 460 529 30,000  Level Edmonton Center
04:34PM 50.5833 -109.8500 316° Northwest 450 518 30,000  Level Edmonton Center
04:35PM 50.6833 -110.0000 318° Northwest 450 518 30,000  Level Edmonton Center
04:36PM 50.7667 -110.1167 315° West 440 506 30,000  Level Edmonton Center
04:37PM 50.8500 -110.2500 319° Northwest 440 506 30,000  Level Edmonton Center
04:38PM 50.9333 -110.3667 317° Northwest 430 495 30,000  Level Edmonton Center
04:39PM 51.0333 -110.5167 324° Northwest 430 495 30,000  Level Edmonton Center
04:40PM 51.1333 -110.6333 309° West 430 495 30,000  Level Edmonton Center
04:41PM 51.2000 -110.7667 320° Northwest 430 495 30,000  Level Edmonton Center
04:42PM 51.3000 -110.9000 317° Northwest 440 506 30,000  Level Edmonton Center
04:43PM 51.4000 -111.0500 315° West 440 506 30,000  Level Edmonton Center
04:44PM 51.4833 -111.1833 315° West 450 518 30,000  Level Edmonton Center
04:45PM 51.5667 -111.3167 314° West 450 518 30,000  Level Edmonton Center
04:46PM 51.6667 -111.4833 317° Northwest 450 518 30,000 60 Level Edmonton Center
04:47PM 51.7667 -111.6333 312° West 460 529 30,200 240 Climbing Edmonton Center
04:48PM 51.8500 -111.7833 317° Northwest 480 552 30,500 600 Climbing Edmonton Center
04:49PM 51.9500 -111.9333 316° Northwest 490 564 31,400 1,140 Climbing Edmonton Center
04:51PM 52.1500 -112.2500 324° Northwest 480 552 34,000 840 Climbing Edmonton Center
04:52PM 52.2500 -112.3667 312° West 460 529 34,000  Level Edmonton Center
04:53PM 52.3333 -112.5167 315° West 460 529 34,000  Level Edmonton Center
04:54PM 52.4333 -112.6833 316° Northwest 460 529 34,000  Level Edmonton Center
04:55PM 52.5167 -112.8167 312° West 460 529 34,000  Level Edmonton Center
04:56PM 52.6167 -113.0000 320° Northwest 470 541 34,000  Level Edmonton Center
04:57PM 52.7000 -113.1167 315° West 470 541 34,000  Level Edmonton Center
04:58PM 52.8000 -113.2833 315° West 470 541 34,000  Level Edmonton Center
04:59PM 52.9000 -113.4500 313° West 470 541 34,000  Level Edmonton Center
05:00PM 52.9833 -113.6000 315° West 480 552 34,000  Level Edmonton Center
05:01PM 53.0833 -113.7667 310° West 480 552 34,000  Level Edmonton Center
05:02PM 53.1667 -113.9333 313° West 480 552 34,000  Level Edmonton Center
05:03PM 53.2500 -114.0833 320° Northwest 480 552 34,000  Level Edmonton Center
05:04PM 53.3667 -114.2500 310° West 480 552 34,000  Level Edmonton Center
05:05PM 53.4500 -114.4167 315° West 490 564 34,000  Level Edmonton Center
05:06PM 53.5500 -114.5833 315° West 490 564 34,000  Level Edmonton Center
05:07PM 53.6500 -114.7500 310° West 480 552 34,000  Level Edmonton Center
05:08PM 53.7333 -114.9167 310° West 480 552 34,000  Level Edmonton Center
05:09PM 53.8167 -115.0833 316° Northwest 480 552 34,000  Level Edmonton Center
05:10PM 53.9167 -115.2500 316° Northwest 470 541 34,000  Level Edmonton Center
05:11PM 54.0167 -115.4167 310° West 470 541 34,000  Level Edmonton Center
05:12PM 54.1000 -115.5833 308° West 470 541 34,000  Level Edmonton Center
05:13PM 54.1833 -115.7667 311° West 470 541 34,000  Level Edmonton Center
05:14PM 54.2667 -115.9333 322° Northwest 470 541 34,000  Level Edmonton Center
05:15PM 54.3667 -116.0667 308° West 470 541 34,000  Level Edmonton Center
05:16PM 54.4500 -116.2500 316° Northwest 470 541 34,000  Level Edmonton Center
05:17PM 54.5500 -116.4167 310° West 470 541 34,000  Level Edmonton Center
05:19PM 54.7167 -116.7667 319° Northwest 470 541 34,000  Level Edmonton Center
05:20PM 54.8167 -116.9167 311° West 460 529 34,000  Level Edmonton Center
05:21PM 54.9000 -117.0833 308° West 460 529 34,000  Level Edmonton Center
05:22PM 54.9833 -117.2667 311° West 460 529 34,000  Level Edmonton Center
05:23PM 55.0667 -117.4333 309° West 470 541 34,000  Level Edmonton Center
05:24PM 55.1500 -117.6167 314° West 470 541 34,000  Level Edmonton Center
05:25PM 55.2500 -117.8000 303° West 470 541 34,000  Level Edmonton Center
05:26PM 55.3167 -117.9833 314° West 470 541 34,000  Level Edmonton Center
05:27PM 55.4000 -118.1333 314° West 470 541 34,000  Level Edmonton Center
05:28PM 55.5000 -118.3167 309° West 470 541 34,000  Level Edmonton Center
05:29PM 55.5833 -118.5000 309° West 470 541 34,000  Level Edmonton Center
05:30PM 55.6667 -118.6833 309° West 470 541 34,000  Level Edmonton Center
05:31PM 55.7500 -118.8667 309° West 470 541 34,000  Level Edmonton Center
05:32PM 55.8333 -119.0500 309° West 470 541 34,000  Level Edmonton Center
05:33PM 55.9167 -119.2333 314° West 470 541 34,000  Level Edmonton Center
05:34PM 56.0167 -119.4167 312° West 470 541 34,000  Level Edmonton Center
05:35PM 56.1000 -119.5833 303° West 470 541 34,000  Level Edmonton Center
05:36PM 56.1667 -119.7667 309° West 470 541 34,000  Level Edmonton Center
05:37PM 56.2500 -119.9500 312° West 470 541 34,000  Level Edmonton Center
05:38PM 56.3500 -120.1500 309° West 470 541 34,000  Level Edmonton Center
05:39PM 56.4333 -120.3333 307° West 470 541 34,000  Level Edmonton Center
05:40PM 56.5167 -120.5333 303° West 470 541 34,000  Level Edmonton Center
05:41PM 56.5833 -120.7167 312° West 470 541 34,000  Level Edmonton Center
05:42PM 56.6667 -120.8833 310° West 470 541 34,000  Level Edmonton Center
05:44PM 56.8500 -121.2833 304° West 470 541 34,000  Level Edmonton Center
05:45PM 56.9167 -121.4667 307° West 470 541 34,000  Level Edmonton Center
05:46PM 57.0000 -121.6667 308° West 470 541 34,000  Level Edmonton Center
05:47PM 57.0833 -121.8667 302° West 470 541 34,000  Level Edmonton Center
05:48PM 57.1500 -122.0667 313° West 470 541 34,000  Level Edmonton Center
05:49PM 57.2500 -122.2667 313° West 470 541 34,000  Level Edmonton Center
05:50PM 57.3333 -122.4333 298° West 470 541 34,000  Level Edmonton Center
05:51PM 57.4000 -122.6667 313° West 470 541 34,000  Level Edmonton Center
05:52PM 57.4833 -122.8333 302° West 470 541 34,000  Level Edmonton Center
05:53PM 57.5500 -123.0333 311° West 470 541 34,000  Level Edmonton Center
05:54PM 57.6500 -123.2500 307° West 470 541 34,000  Level Edmonton Center
05:55PM 57.7167 -123.4167 304° West 470 541 34,000  Level Edmonton Center
05:56PM 57.8000 -123.6500 304° West 470 541 34,000  Level Edmonton Center
05:57PM 57.8667 -123.8333 299° West 470 541 34,000  Level Edmonton Center
06:56PM 60.8167 -137.4667 277° West 460 529 34,000  Level Anchorage Center
06:57PM 60.8333 -137.7333 277° West 470 541 34,000  Level Anchorage Center
06:58PM 60.8500 -138.0000 278° West 470 541 34,000  Level Anchorage Center
06:59PM 60.8667 -138.2500 285° West 460 529 34,000  Level Anchorage Center
07:00PM 60.9000 -138.5167 277° West 470 541 34,000  Level Anchorage Center
07:01PM 60.9167 -138.7833 277° West 470 541 34,000  Level Anchorage Center
07:02PM 60.9333 -139.0500 277° West 470 541 34,000  Level Anchorage Center
07:03PM 60.9500 -139.3167 277° West 470 541 34,000  Level Anchorage Center
07:04PM 60.9667 -139.5833 277° West 470 541 34,000  Level Anchorage Center
07:05PM 60.9833 -139.8500 277° West 470 541 34,000  Level Anchorage Center
07:06PM 61.0000 -140.1167 270° West 470 541 34,000  Level Anchorage Center
07:07PM 61.0000 -140.3833 277° West 470 541 34,000  Level Anchorage Center
07:08PM 61.0167 -140.6667 270° West 470 541 34,000  Level Anchorage Center
07:09PM 61.0167 -140.9167 277° West 460 529 34,000  Level Anchorage Center
07:10PM 61.0333 -141.1833 270° West 460 529 34,000  Level Anchorage Center
07:11PM 61.0333 -141.4500 278° West 450 518 34,000  Level Anchorage Center
07:12PM 61.0500 -141.7000 270° West 460 529 34,000  Level Anchorage Center
07:13PM 61.0500 -141.9667 270° West 460 529 34,000  Level Anchorage Center
07:14PM 61.0500 -142.2333 277° West 470 541 34,000  Level Anchorage Center
07:15PM 61.0667 -142.5000 270° West 470 541 34,000  Level Anchorage Center
07:16PM 61.0667 -142.7667 270° West 460 529 34,000  Level Anchorage Center
07:17PM 61.0667 -143.0333 270° West 460 529 34,000  Level Anchorage Center
07:18PM 61.0667 -143.3000 277° West 460 529 34,000  Level Anchorage Center
07:19PM 61.0833 -143.5667 270° West 470 541 34,000  Level Anchorage Center
07:20PM 61.0833 -143.8333 270° West 460 529 34,000  Level Anchorage Center
07:21PM 61.0833 -144.1000 270° West 460 529 34,000  Level Anchorage Center
07:22PM 61.0833 -144.4000 270° West 460 529 34,000  Level Anchorage Center
07:23PM 61.0833 -144.6667 270° West 450 518 34,000  Level Anchorage Center
07:24PM 61.0833 -144.9333 270° West 460 529 34,000  Level Anchorage Center
07:25PM 61.0833 -145.2000 270° West 460 529 34,000  Level Anchorage Center
07:26PM 61.0833 -145.4667 270° West 460 529 34,000  Level Anchorage Center
07:27PM 61.0833 -145.7167 270° West 460 529 34,000  Level Anchorage Center
07:28PM 61.0833 -146.0000 270° West 460 529 34,000  Level Anchorage Center
07:29PM 61.0833 -146.2500 270° West 460 529 34,000  Level Anchorage Center
07:30PM 61.0833 -146.5167 263° West 460 529 34,000  Level Anchorage Center
07:31PM 61.0667 -146.7833 270° West 460 529 34,000  Level Anchorage Center
07:32PM 61.0667 -147.0667 270° West 460 529 34,000  Level Anchorage Center
07:33PM 61.0667 -147.3167 270° West 460 529 34,000  Level Anchorage Center
07:34PM 61.0667 -147.6000 261° West 460 529 34,000  Level Anchorage Center
07:35PM 61.0500 -147.8167 270° West 450 518 34,000  Level Anchorage Center
07:36PM 61.0500 -148.0667 270° West 460 529 34,000  Level Anchorage Center
07:37PM 61.0500 -148.3833 263° West 450 518 34,000  Level Anchorage Center
07:38PM 61.0333 -148.6500 270° West 460 529 34,000  Level Anchorage Center
07:39PM 61.0333 -148.9000 267° West 460 529 34,000  Level Anchorage Center
07:41PM 61.0167 -149.4333 263° West 460 529 34,000  Level Anchorage Center
07:42PM 61.0000 -149.7000 270° West 460 529 34,000  Level Anchorage Center
07:43PM 61.0000 -149.9500 270° West 460 529 34,000  Level Anchorage Center
07:44PM 61.0000 -150.2167 270° West 460 529 34,000  Level Anchorage Center
07:46PM 61.0000 -150.4833 277° West 460 529 34,000  Level Anchorage Center
07:47PM 61.0167 -150.7500 277° West 460 529 34,000  Level Anchorage Center
07:48PM 61.0333 -151.0167 270° West 460 529 34,000  Level Anchorage Center
07:49PM 61.0333 -151.2667 270° West 460 529 34,000  Level Anchorage Center
07:50PM 61.0333 -151.5333 277° West 460 529 34,000  Level Anchorage Center
07:51PM 61.0500 -151.8000 270° West 460 529 34,000  Level Anchorage Center
07:52PM 61.0500 -152.0667 277° West 460 529 34,000  Level Anchorage Center
07:53PM 61.0667 -152.3333 270° West 460 529 34,000  Level Anchorage Center
07:54PM 61.0667 -152.6000 270° West 470 541 34,000  Level Anchorage Center
07:55PM 61.0667 -152.9167 270° West 460 529 34,000  Level Anchorage Center
07:56PM 61.0667 -153.1833 277° West 470 541 34,000  Level Anchorage Center
07:57PM 61.0833 -153.4500 270° West 460 529 34,000  Level Anchorage Center
07:58PM 61.0833 -153.7000 270° West 470 541 34,000  Level Anchorage Center
07:59PM 61.0833 -153.9667 270° West 460 529 34,000  Level Anchorage Center
08:00PM 61.0833 -154.2333 270° West 460 529 34,000  Level Anchorage Center
08:01PM 61.0833 -154.5000 270° West 460 529 34,000  Level Anchorage Center
08:02PM 61.0833 -154.7667 270° West 460 529 34,000  Level Anchorage Center
08:03PM 61.0833 -155.0333 270° West 470 541 34,000  Level Anchorage Center
08:04PM 61.0833 -155.3000 270° West 470 541 34,000  Level Anchorage Center
08:05PM 61.0833 -155.5500 270° West 450 518 34,000  Level Anchorage Center
08:06PM 61.0833 -155.8167 270° West 460 529 34,000  Level Anchorage Center
08:07PM 61.0833 -156.1333 270° West 460 529 34,000  Level Anchorage Center
08:08PM 61.0833 -156.3833 263° West 460 529 34,000  Level Anchorage Center
08:09PM 61.0667 -156.6500 270° West 450 518 34,000  Level Anchorage Center
08:10PM 61.0667 -156.9167 270° West 450 518 34,000  Level Anchorage Center
08:11PM 61.0667 -157.1833 270° West 460 529 34,000  Level Anchorage Center
08:12PM 61.0667 -157.4500 263° West 450 518 34,000  Level Anchorage Center
08:13PM 61.0500 -157.7167 270° West 460 529 34,000  Level Anchorage Center
08:14PM 61.0500 -157.9833 270° West 460 529 34,000  Level Anchorage Center
08:15PM 61.0500 -158.2333 263° West 450 518 34,000  Level Anchorage Center
08:16PM 61.0333 -158.5000 270° West 450 518 34,000  Level Anchorage Center
08:17PM 61.0333 -158.7667 270° West 450 518 34,000  Level Anchorage Center
08:18PM 61.0333 -159.0333 262° West 460 529 34,000  Level Anchorage Center
08:19PM 61.0167 -159.2833 270° West 450 518 34,000  Level Anchorage Center
08:20PM 61.0167 -159.5500 263° West 450 518 34,000  Level Anchorage Center
08:21PM 61.0000 -159.8167 262° West 460 529 34,000  Level Anchorage Center
08:22PM 60.9833 -160.0667 263° West 450 518 34,000  Level Anchorage Center
08:23PM 60.9667 -160.3333 262° West 450 518 34,000  Level Anchorage Center
08:24PM 60.9500 -160.5833 257° West 460 529 34,000  Level Anchorage Center
08:25PM 60.9167 -160.8667 263° West 450 518 34,000  Level Anchorage Center
08:26PM 60.9000 -161.1333 262° West 460 529 34,000  Level Anchorage Center
08:27PM 60.8833 -161.3667 262° West 460 529 34,000 300 Level Anchorage Center
08:28PM 60.8667 -161.6167 257° West 450 518 34,700 480 Climbing Anchorage Center
08:29PM 60.8333 -161.9000 263° West 450 518 35,000 120 Climbing Anchorage Center
08:30PM 60.8167 -162.1667 253° West 450 518 35,000  Level Anchorage Center
08:31PM 60.7833 -162.3833 263° West 450 518 35,000  Level Anchorage Center
08:32PM 60.7667 -162.6500 262° West 450 518 35,000 60 Level Anchorage Center
08:33PM 60.7500 -162.9000 256° West 460 529 35,200 480 Climbing Anchorage Center
08:34PM 60.7167 -163.1667 255° West 460 529 36,000 360 Climbing Anchorage Center
08:35PM 60.6833 -163.4167 262° West 460 529 36,000  Level Anchorage Center
08:36PM 60.6667 -163.6667 256° West 450 518 36,000  Level Anchorage Center
08:37PM 60.6333 -163.9333 262° West 460 529 36,000  Level Anchorage Center
08:38PM 60.6167 -164.1833 255° West 450 518 36,000  Level Anchorage Center
08:39PM 60.5833 -164.4333 256° West 460 529 36,000  Level Anchorage Center
08:40PM 60.5500 -164.7000 254° West 460 529 36,000  Level Anchorage Center
08:41PM 60.5167 -164.9333 263° West 450 518 36,000  Level Anchorage Center
08:42PM 60.5000 -165.2000 255° West 450 518 36,000  Level Anchorage Center
08:43PM 60.4667 -165.4500 255° West 450 518 36,000  Level Anchorage Center
08:45PM 60.4000 -165.9500 262° West 450 518 36,000  Level Anchorage Center
08:46PM 60.3833 -166.2000 255° West 450 518 36,000  Level Anchorage Center
08:47PM 60.3500 -166.4500 255° West 450 518 36,000  Level Anchorage Center
08:49PM 60.2833 -166.9500 254° West 450 518 36,000  Level Anchorage Center
08:50PM 60.2500 -167.1833 255° West 450 518 36,000  Level Anchorage Center
08:51PM 60.2167 -167.4333 255° West 450 518 36,000  Level Anchorage Center
08:52PM 60.1833 -167.6833 254° West 450 518 36,000  Level Anchorage Center
08:53PM 60.1500 -167.9167 255° West 450 518 36,000  Level Anchorage Center
08:54PM 60.1167 -168.1667 254° West 450 518 36,000  Level Anchorage Center
08:55PM 60.0833 -168.4000 255° West 440 506 36,000  Level Anchorage Center
08:56PM 60.0500 -168.6500 254° West 450 518 36,000  Level Anchorage Center
08:57PM 60.0167 -168.8833 248° West 450 518 36,000  Level Anchorage Center
08:58PM 59.9667 -169.1333 254° West 450 518 36,000  Level Anchorage Center
08:59PM 59.9333 -169.3667 261° West 450 518 36,000  Level Anchorage Center
09:00PM 59.9167 -169.5667 250° West 450 518 36,000  Level Anchorage Center
09:01PM 59.8667 -169.8333 254° West 450 518 36,000  Level Anchorage Center
09:02PM 59.8333 -170.0667 254° West 440 506 36,000  Level Anchorage Center
09:03PM 59.8000 -170.3000 248° West 440 506 36,000  Level Anchorage Center
09:04PM 59.7500 -170.5500 254° West 460 529 36,000  Level Anchorage Center
09:05PM 59.7167 -170.7833 254° West 450 518 36,000  Level Anchorage Center
09:06PM 59.6833 -171.0167 247° West 460 529 36,000  Level Anchorage Center
09:07PM 59.6333 -171.2500 255° West 450 518 36,000  Level Anchorage Center
09:08PM 59.6000 -171.5000 247° West 470 541 36,000  Level Anchorage Center
09:09PM 59.5500 -171.7333 254° West 450 518 36,000  Level Anchorage Center
09:10PM 59.5167 -171.9667 247° West 450 518 36,000  Level Anchorage Center
09:11PM 59.4667 -172.2000 247° West 450 518 36,000  Level Anchorage Center
09:13PM 59.3667 -172.6667 253° West 450 518 36,000  Level Anchorage Center
09:14PM 59.3333 -172.8833 243° Southwest 450 518 36,000  Level Anchorage Center
09:15PM 59.2667 -173.1333 253° West 460 529 36,000  Level Anchorage Center
09:16PM 59.2333 -173.3500 247° West 460 529 36,000  Level Anchorage Center
09:19PM 59.0833 -174.0333 246° West 440 506 36,000  Level Anchorage Center
09:20PM 59.0333 -174.2500 248° West 440 506 36,000  Level Anchorage Center
09:21PM 58.9833 -174.4833 246° West 450 518 36,000  Level Anchorage Center
09:22PM 58.9333 -174.7000 248° West 450 518 36,000  Level Anchorage Center
09:23PM 58.8833 -174.9333 246° West 450 518 36,000  Level Anchorage Center
09:24PM 58.8333 -175.1500 246° West 450 518 36,000  Level Anchorage Center
09:25PM 58.7833 -175.3667 248° West 440 506 36,000  Level Anchorage Center
09:26PM 58.7333 -175.6000 240° Southwest 450 518 36,000  Level Anchorage Center
09:27PM 58.6833 -175.7667 247° West 460 529 36,000  Level Anchorage Center
09:29PM 58.5667 -176.2833 244° Southwest 460 529 36,000  Level Anchorage Center
09:30PM 58.5167 -176.4833 249° West 430 495 36,000  Level Anchorage Center
09:31PM 58.4833 -176.6500 245° Southwest 420 483 36,000  Level Anchorage Center
09:32PM 58.4333 -176.8500 245° Southwest 420 483 36,000  Level Anchorage Center
09:33PM 58.3833 -177.0500 245° Southwest 410 472 36,000  Level Anchorage Center
09:34PM 58.3333 -177.2500 58° Northeast 410 472 36,000  Level Anchorage Center
09:36PM 58.3833 -177.1000 245° Southwest 414 476 36,000  Level Anchorage Center
09:41PM 57.9667 -178.7333 243° Southwest 425 489 36,000  Level Anchorage Center
10:03PM 56.8333 177.3500 240° Southwest 424 488 36,000  Level Anchorage Center
10:08PM 56.4833 176.2833 239° Southwest 424 488 36,000  Level Anchorage Center
10:15PM 56.0333 174.9667 239° Southwest 450 518 36,000  Level Anchorage Center
10:16PM 55.9833 174.8167 239° Southwest 420 483 36,000  Level Anchorage Center
10:17PM 55.9167 174.6167 232° Southwest 420 483 36,000  Level Anchorage Center
10:18PM 55.8500 174.4667 239° Southwest 420 483 36,000  Level Anchorage Center
10:19PM 55.7833 174.2667 237° Southwest 430 495 36,000  Level Anchorage Center
10:20PM 55.7167 174.0833 242° Southwest 430 495 36,000  Level Anchorage Center
10:21PM 55.6667 173.9167 231° Southwest 430 495 36,000  Level Anchorage Center
10:22PM 55.5833 173.7333 242° Southwest 430 495 36,000  Level Anchorage Center
10:23PM 55.5333 173.5667 234° Southwest 440 506 36,000  Level Anchorage Center
10:24PM 55.4500 173.3667 240° Southwest 440 506 36,000  Level Anchorage Center
10:25PM 55.4000 173.2167 240° Southwest 440 506 36,000  Level Anchorage Center
10:26PM 55.3333 173.0167 234° Southwest 430 495 36,000  Level Anchorage Center
10:27PM 55.2500 172.8167 232° Southwest 450 518 36,000  Level Anchorage Center
10:28PM 55.1833 172.6667 238° Southwest 440 506 36,000  Level Anchorage Center
10:29PM 55.1167 172.4833 240° Southwest 440 506 36,000  Level Anchorage Center
10:30PM 55.0667 172.3333 234° Southwest 430 495 36,000  Level Anchorage Center
10:31PM 54.9833 172.1333 232° Southwest 430 495 36,000  Level Anchorage Center
10:32PM 54.9167 171.9833 240° Southwest 440 506 36,000  Level Anchorage Center
10:33PM 54.8500 171.7833 232° Southwest 450 518 36,000  Level Anchorage Center
10:34PM 54.7833 171.6333 229° Southwest 440 506 36,000  Level Anchorage Center
10:35PM 54.7000 171.4667 240° Southwest 430 495 36,000  Level Anchorage Center
10:36PM 54.6333 171.2667 229° Southwest 440 506 36,000  Level Anchorage Center
10:37PM 54.5667 171.1333 238° Southwest 430 495 36,000  Level Anchorage Center
10:38PM 54.5000 170.9500 233° Southwest 440 506 36,000  Level Anchorage Center
10:39PM 54.4333 170.8000 232° Southwest 430 495 36,000  Level Anchorage Center
10:40PM 54.3500 170.6167 233° Southwest 450 518 36,000  Level Anchorage Center
10:41PM 54.2833 170.4667 238° Southwest 440 506 36,000  Level Anchorage Center
10:42PM 54.2167 170.2833 232° Southwest 450 518 36,000  Level Anchorage Center
10:43PM 54.1333 170.1000 233° Southwest 440 506 36,000  Level Anchorage Center
10:44PM 54.0667 169.9500 232° Southwest 450 518 36,000  Level Anchorage Center
10:45PM 53.9833 169.7667 230° Southwest 440 506 36,000  Level Anchorage Center
10:46PM 53.9167 169.6333 230° Southwest 430 495 36,000  Level Anchorage Center
10:47PM 53.8500 169.5000 238° Southwest 430 495 36,000  Level Anchorage Center
10:48PM 53.7833 169.3167 233° Southwest 440 506 36,000  Level Anchorage Center
10:49PM 53.7000 169.1333 241° Southwest 430 495 36,000  Level Anchorage Center
10:50PM 53.6500 168.9833 241° Southwest 440 506 36,000  Level Anchorage Center
10:51PM 53.5833 168.7833 241° Southwest 430 495 36,000  Level Anchorage Center
10:52PM 53.5333 168.6333 244° Southwest 440 506 36,000  Level Anchorage Center
10:56PM 53.4167 168.2333 239° Southwest 425 489 36,000  Level Anchorage Center
11:02PM 53.0000 167.1000 239° Southwest 429 494 36,000  Level Anchorage Center
11:22PM 51.6500 163.6500 237° Southwest 447 514 36,000  Level Anchorage Center
11:28PM 51.2333 162.6333 235° Southwest 446 513 36,000  Level Anchorage Center
11:36PM 50.6354 161.2894 234° Southwest 446 513 36,000  Level FlightAware Transoceanic
11:37PM 50.5635 161.1323 234° Southwest 446 513 36,000  Level FlightAware Transoceanic
11:38PM 50.4914 160.9758 234° Southwest 446 513 36,000  Level FlightAware Transoceanic
11:39PM 50.4190 160.8196 234° Southwest 446 513 36,000  Level FlightAware Transoceanic
11:40PM 50.3465 160.6640 234° Southwest 446 513 36,000  Level FlightAware Transoceanic
11:41PM 50.2737 160.5088 234° Southwest 446 513 36,000  Level FlightAware Transoceanic
11:42PM 50.2008 160.3541 234° Southwest 446 513 36,000  Level FlightAware Transoceanic
11:43PM 50.1276 160.1999 233° Southwest 446 513 36,000  Level FlightAware Transoceanic
11:44PM 50.0542 160.0462 233° Southwest 446 513 36,000  Level FlightAware Transoceanic
11:45PM 49.9807 159.8929 233° Southwest 446 513 36,000  Level FlightAware Transoceanic
11:46PM 49.9069 159.7401 233° Southwest 446 513 36,000  Level FlightAware Transoceanic
11:47PM 49.8330 159.5877 233° Southwest 446 513 36,000  Level FlightAware Transoceanic
11:48PM 49.7588 159.4359 233° Southwest 446 513 36,000  Level FlightAware Transoceanic
11:49PM 49.6854 159.2861 233° Southwest 446 513 36,000  Level FlightAware Transoceanic
11:50PM 49.6131 159.1388 233° Southwest 446 513 36,000  Level FlightAware Transoceanic
11:51PM 49.5406 158.9920 233° Southwest 446 513 36,000  Level FlightAware Transoceanic
11:52PM 49.4680 158.8456 233° Southwest 446 513 36,000  Level FlightAware Transoceanic
11:53PM 49.3951 158.6997 232° Southwest 446 513 36,000  Level FlightAware Transoceanic
11:54PM 49.3221 158.5542 232° Southwest 446 513 36,000  Level FlightAware Transoceanic
11:55PM 49.2489 158.4091 232° Southwest 446 513 36,000  Level FlightAware Transoceanic
11:56PM 49.1755 158.2645 232° Southwest 446 513 36,000  Level FlightAware Transoceanic
11:57PM 49.1019 158.1203 232° Southwest 446 513 36,000  Level FlightAware Transoceanic
11:58PM 49.0282 157.9765 232° Southwest 446 513 36,000  Level FlightAware Transoceanic
11:59PM 48.9542 157.8331 232° Southwest 446 513 36,000  Level FlightAware Transoceanic
12:00AM 48.8801 157.6902 232° Southwest 446 513 36,000  Level FlightAware Transoceanic
12:01AM 48.8058 157.5477 232° Southwest 446 513 36,000  Level FlightAware Transoceanic
12:02AM 48.7314 157.4056 231° Southwest 446 513 36,000  Level FlightAware Transoceanic
12:03AM 48.6567 157.2639 231° Southwest 446 513 36,000  Level FlightAware Transoceanic
12:04AM 48.5819 157.1226 231° Southwest 446 513 36,000  Level FlightAware Transoceanic
12:05AM 48.5070 156.9818 231° Southwest 446 513 36,000  Level FlightAware Transoceanic
12:06AM 48.4318 156.8414 231° Southwest 446 513 36,000  Level FlightAware Transoceanic
12:07AM 48.3565 156.7014 231° Southwest 446 513 36,000  Level FlightAware Transoceanic
12:08AM 48.2810 156.5618 231° Southwest 446 513 36,000  Level FlightAware Transoceanic
12:09AM 48.2053 156.4226 231° Southwest 446 513 36,000  Level FlightAware Transoceanic
12:10AM 48.1295 156.2839 231° Southwest 446 513 36,000  Level FlightAware Transoceanic
12:11AM 48.0535 156.1455 231° Southwest 446 513 36,000  Level FlightAware Transoceanic
12:12AM 47.9774 156.0076 230° Southwest 446 513 36,000  Level FlightAware Transoceanic
12:13AM 47.9010 155.8700 230° Southwest 446 513 36,000  Level FlightAware Transoceanic
12:14AM 47.8246 155.7329 230° Southwest 446 513 36,000  Level FlightAware Transoceanic
12:15AM 47.7479 155.5961 230° Southwest 446 513 36,000  Level FlightAware Transoceanic
12:16AM 47.6711 155.4598 230° Southwest 446 513 36,000  Level FlightAware Transoceanic
12:17AM 47.5941 155.3239 230° Southwest 446 513 36,000  Level FlightAware Transoceanic
12:18AM 47.5170 155.1884 230° Southwest 446 513 36,000  Level FlightAware Transoceanic
12:19AM 47.4397 155.0532 230° Southwest 446 513 36,000  Level FlightAware Transoceanic
12:20AM 47.3623 154.9185 230° Southwest 446 513 36,000  Level FlightAware Transoceanic
12:21AM 47.2846 154.7842 230° Southwest 446 513 36,000  Level FlightAware Transoceanic
12:22AM 47.2069 154.6502 229° Southwest 446 513 36,000  Level FlightAware Transoceanic
12:23AM 47.1290 154.5167 229° Southwest 446 513 36,000  Level FlightAware Transoceanic
12:24AM 47.0509 154.3835 229° Southwest 446 513 36,000  Level FlightAware Transoceanic
12:25AM 46.9727 154.2507 229° Southwest 446 513 36,000  Level FlightAware Transoceanic
12:26AM 46.8943 154.1184 229° Southwest 446 513 36,000  Level FlightAware Transoceanic
12:27AM 46.8157 153.9864 229° Southwest 446 513 36,000  Level FlightAware Transoceanic
12:28AM 46.7371 153.8548 229° Southwest 446 513 36,000  Level FlightAware Transoceanic
12:29AM 46.6582 153.7235 229° Southwest 446 513 36,000  Level FlightAware Transoceanic
12:30AM 46.5792 153.5927 229° Southwest 446 513 36,000  Level FlightAware Transoceanic
12:31AM 46.5001 153.4622 229° Southwest 446 513 36,000  Level FlightAware Transoceanic
12:32AM 46.4208 153.3322 228° Southwest 446 513 36,000  Level FlightAware Transoceanic
12:33AM 46.3414 153.2025 228° Southwest 446 513 36,000  Level FlightAware Transoceanic
12:34AM 46.2618 153.0731 228° Southwest 446 513 36,000  Level FlightAware Transoceanic
12:35AM 46.1794 152.9409 228° Southwest  Level FlightAware Approximate
12:36AM 46.0966 152.8092 228° Southwest  Level FlightAware Approximate
12:37AM 46.0138 152.6779 228° Southwest  Level FlightAware Approximate
12:38AM 45.9308 152.5470 228° Southwest  Level FlightAware Approximate
12:39AM 45.8476 152.4165 227° Southwest  Level FlightAware Approximate
12:40AM 45.7643 152.2864 226° Southwest  Level FlightAware Approximate
12:41AM 45.6787 152.1595 227° Southwest  Level FlightAware Approximate
12:42AM 45.5953 152.0299 227° Southwest  Level FlightAware Approximate
12:43AM 45.5117 151.9007 227° Southwest  Level FlightAware Approximate
12:44AM 45.4280 151.7719 227° Southwest  Level FlightAware Approximate
12:45AM 45.3442 151.6434 227° Southwest  Level FlightAware Approximate
12:46AM 45.2602 151.5154 227° Southwest  Level FlightAware Approximate
12:47AM 45.1761 151.3877 227° Southwest  Level FlightAware Approximate
12:48AM 45.0918 151.2604 227° Southwest  Level FlightAware Approximate
12:49AM 45.0074 151.1335 227° Southwest  Level FlightAware Approximate
12:50AM 44.9228 151.0069 227° Southwest  Level FlightAware Approximate
12:51AM 44.8381 150.8807 227° Southwest  Level FlightAware Approximate
12:52AM 44.7533 150.7549 226° Southwest  Level FlightAware Approximate
12:53AM 44.6683 150.6294 226° Southwest  Level FlightAware Approximate
12:54AM 44.5832 150.5044 226° Southwest  Level FlightAware Approximate
12:55AM 44.4979 150.3797 226° Southwest  Level FlightAware Approximate
12:56AM 44.4126 150.2553 226° Southwest  Level FlightAware Approximate
12:57AM 44.3270 150.1313 226° Southwest  Level FlightAware Approximate
12:58AM 44.2414 150.0077 226° Southwest  Level FlightAware Approximate
12:59AM 44.1556 149.8844 226° Southwest  Level FlightAware Approximate
01:00AM 44.0697 149.7615 226° Southwest  Level FlightAware Approximate
01:01AM 43.9836 149.6390 226° Southwest  Level FlightAware Approximate
01:02AM 43.8974 149.5168 226° Southwest  Level FlightAware Approximate
01:03AM 43.8111 149.3950 225° Southwest  Level FlightAware Approximate
01:04AM 43.7247 149.2735 225° Southwest  Level FlightAware Approximate
01:05AM 43.6381 149.1523 225° Southwest  Level FlightAware Approximate
01:06AM 43.5514 149.0315 225° Southwest  Level FlightAware Approximate
01:07AM 43.4646 148.9111 225° Southwest  Level FlightAware Approximate
01:08AM 43.3777 148.7910 225° Southwest  Level FlightAware Approximate
01:09AM 43.2906 148.6713 225° Southwest  Level FlightAware Approximate
01:10AM 43.2034 148.5518 225° Southwest  Level FlightAware Approximate
01:11AM 43.1161 148.4328 225° Southwest  Level FlightAware Approximate
01:12AM 43.0286 148.3141 225° Southwest  Level FlightAware Approximate
01:13AM 42.9411 148.1957 225° Southwest  Level FlightAware Approximate
01:14AM 42.8534 148.0776 225° Southwest  Level FlightAware Approximate
01:15AM 42.7656 147.9599 224° Southwest  Level FlightAware Approximate
01:16AM 42.6777 147.8425 224° Southwest  Level FlightAware Approximate
01:17AM 42.5896 147.7254 224° Southwest  Level FlightAware Approximate
01:18AM 42.5014 147.6087 224° Southwest  Level FlightAware Approximate
01:19AM 42.4132 147.4923 221° Southwest  Level FlightAware Approximate
01:20AM 42.3208 147.3832 224° Southwest  Level FlightAware Approximate
01:21AM 42.2324 147.2673 224° Southwest  Level FlightAware Approximate
01:22AM 42.1439 147.1517 224° Southwest  Level FlightAware Approximate
01:23AM 42.0553 147.0364 224° Southwest  Level FlightAware Approximate
01:24AM 41.9666 146.9215 226° Southwest  Level FlightAware Approximate
01:25AM 41.8803 146.8033 215° Southwest  Level FlightAware Approximate
01:26AM 41.7797 146.7081 215° Southwest  Level FlightAware Approximate
01:27AM 41.6789 146.6133 215° Southwest  Level FlightAware Approximate
01:28AM 41.5780 146.5187 215° Southwest  Level FlightAware Approximate
01:29AM 41.4771 146.4244 215° Southwest  Level FlightAware Approximate
01:30AM 41.3761 146.3304 215° Southwest  Level FlightAware Approximate
01:31AM 41.2750 146.2367 215° Southwest  Level FlightAware Approximate
01:32AM 41.1739 146.1433 215° Southwest  Level FlightAware Approximate
01:33AM 41.0726 146.0502 215° Southwest  Level FlightAware Approximate
01:34AM 40.9713 145.9573 215° Southwest  Level FlightAware Approximate
01:35AM 40.8702 145.8650 215° Southwest  Level FlightAware Approximate
01:36AM 40.7690 145.7730 215° Southwest  Level FlightAware Approximate
01:37AM 40.6678 145.6812 214° Southwest  Level FlightAware Approximate
01:38AM 40.5664 145.5898 214° Southwest  Level FlightAware Approximate
01:39AM 40.4650 145.4986 214° Southwest  Level FlightAware Approximate
01:40AM 40.3635 145.4076 214° Southwest  Level FlightAware Approximate
01:41AM 40.2620 145.3170 212° Southwest  Level FlightAware Approximate
01:42AM 40.1574 145.2325 212° Southwest  Level FlightAware Approximate
01:43AM 40.0528 145.1483 212° Southwest  Level FlightAware Approximate
01:44AM 39.9481 145.0644 212° Southwest  Level FlightAware Approximate
01:45AM 39.8434 144.9807 211° Southwest  Level FlightAware Approximate
01:46AM 39.7386 144.8973 211° Southwest  Level FlightAware Approximate
01:47AM 39.6338 144.8141 211° Southwest  Level FlightAware Approximate
01:48AM 39.5289 144.7312 211° Southwest  Level FlightAware Approximate
01:49AM 39.4239 144.6485 211° Southwest  Level FlightAware Approximate
01:50AM 39.3189 144.5661 211° Southwest  Level FlightAware Approximate
01:51AM 39.2138 144.4839 211° Southwest  Level FlightAware Approximate
01:52AM 39.1081 144.4031 212° Southwest  Level FlightAware Approximate
01:53AM 39.0044 144.3183 225° Southwest  Level FlightAware Approximate
01:54AM 38.9170 144.2073 225° Southwest  Level FlightAware Approximate
01:55AM 38.8296 144.0965 225° Southwest  Level FlightAware Approximate
01:56AM 38.7420 143.9860 224° Southwest  Level FlightAware Approximate
01:57AM 38.6543 143.8757 224° Southwest  Level FlightAware Approximate
01:58AM 38.5665 143.7658 224° Southwest  Level FlightAware Approximate
01:59AM 38.4786 143.6561 224° Southwest  Level FlightAware Approximate
02:00AM 38.3906 143.5466 224° Southwest  Level FlightAware Approximate
02:01AM 38.3026 143.4375 224° Southwest  Level FlightAware Approximate
02:02AM 38.2144 143.3286 224° Southwest  Level FlightAware Approximate
02:03AM 38.1261 143.2199 224° Southwest  Level FlightAware Approximate
02:04AM 38.0377 143.1116 224° Southwest  Level FlightAware Approximate
02:05AM 37.9493 143.0036 224° Southwest  Level FlightAware Approximate
02:06AM 37.8608 142.8959 224° Southwest  Level FlightAware Approximate
02:07AM 37.7723 142.7884 224° Southwest  Level FlightAware Approximate
02:08AM 37.6836 142.6812 224° Southwest  Level FlightAware Approximate
02:09AM 37.5948 142.5742 224° Southwest  Level FlightAware Approximate
02:10AM 37.5060 142.4676 224° Southwest  Level FlightAware Approximate
02:11AM 37.4170 142.3611 223° Southwest  Level FlightAware Approximate
02:12AM 37.3279 142.2549 223° Southwest  Level FlightAware Approximate
02:13AM 37.2388 142.1490 223° Southwest  Level FlightAware Approximate
02:14AM 37.1495 142.0433 223° Southwest  Level FlightAware Approximate
02:15AM 37.0602 141.9379 223° Southwest  Level FlightAware Approximate
02:16AM 36.9708 141.8327 223° Southwest  Level FlightAware Approximate
02:17AM 36.8812 141.7278 223° Southwest  Level FlightAware Approximate
02:18AM 36.7916 141.6231 223° Southwest  Level FlightAware Approximate
02:19AM 36.7019 141.5186 223° Southwest  Level FlightAware Approximate
02:20AM 36.6121 141.4144 223° Southwest  Level FlightAware Approximate
02:21AM 36.5222 141.3105 223° Southwest  Level FlightAware Approximate
02:22AM 36.4323 141.2067 223° Southwest  Level FlightAware Approximate
02:23AM 36.3422 141.1033 223° Southwest  Level FlightAware Approximate
02:24AM 36.2520 141.0000 223° Southwest  Level FlightAware Approximate
02:25AM 36.1618 140.8970 223° Southwest  Level FlightAware Approximate
02:26AM 36.0714 140.7942 223° Southwest  Level FlightAware Approximate
02:27AM 35.9810 140.6917 222° Southwest  Level FlightAware Approximate
02:28AM 35.8905 140.5894 222° Southwest  Level FlightAware Approximate
02:29AM 35.7999 140.4874 239° Southwest  Level FlightAware Approximate
02:30AM 35.7500 140.3833 10° North  Level FlightAware Approximate
02:31AM 35.8710 140.4085 37° Northeast  Level Estimated
02:32AM 38.6368 143.1157 217° Southwest  Level FlightAware Approximate
02:33AM 38.5392 143.0206 217° Southwest  Level FlightAware Approximate
02:34AM 38.4415 142.9258 217° Southwest  Level FlightAware Approximate
02:35AM 38.3437 142.8313 217° Southwest  Level FlightAware Approximate
02:36AM 38.2459 142.7370 217° Southwest  Level FlightAware Approximate
02:37AM 38.1479 142.6429 217° Southwest  Level FlightAware Approximate
02:38AM 38.0499 142.5491 217° Southwest  Level FlightAware Approximate
02:39AM 37.9519 142.4556 217° Southwest  Level FlightAware Approximate
02:40AM 37.8537 142.3623 217° Southwest  Level FlightAware Approximate
02:41AM 37.7555 142.2693 217° Southwest  Level FlightAware Approximate
02:42AM 37.6572 142.1765 217° Southwest  Level FlightAware Approximate
02:43AM 37.5588 142.0839 217° Southwest  Level FlightAware Approximate
02:44AM 37.4604 141.9916 217° Southwest  Level FlightAware Approximate
02:45AM 37.3619 141.8996 217° Southwest  Level FlightAware Approximate
02:46AM 37.2633 141.8078 217° Southwest  Level FlightAware Approximate
02:47AM 37.1646 141.7162 216° Southwest  Level FlightAware Approximate
02:48AM 37.0659 141.6248 216° Southwest  Level FlightAware Approximate
02:49AM 36.9671 141.5337 216° Southwest  Level FlightAware Approximate
02:50AM 36.8683 141.4429 216° Southwest  Level FlightAware Approximate
02:51AM 36.7693 141.3522 216° Southwest  Level FlightAware Approximate
02:52AM 36.6703 141.2618 216° Southwest  Level FlightAware Approximate
02:53AM 36.5713 141.1717 216° Southwest  Level FlightAware Approximate
02:54AM 36.4721 141.0817 216° Southwest  Level FlightAware Approximate
02:55AM 36.3729 140.9920 216° Southwest  Level FlightAware Approximate
02:56AM 36.2737 140.9025 216° Southwest  Level FlightAware Approximate
02:57AM 36.1743 140.8133 216° Southwest  Level FlightAware Approximate
02:58AM 36.0749 140.7243 216° Southwest  Level FlightAware Approximate
02:59AM 35.9754 140.6355 216° Southwest  Level FlightAware Approximate
03:00AM 35.8759 140.5469 216° Southwest  Level FlightAware Approximate
03:01AM 35.7763 140.4585 247° West  Level FlightAware Approximate
03:02AM 35.7500 140.3833 10° North  Level FlightAware Approximate
03:03AM 35.8710 140.4085 134° Southeast  Level Estimated
03:04AM 35.7746 140.5310 258° West  Level FlightAware Approximate
03:05AM 35.7500 140.3834 North  Level FlightAware Approximate
03:06AM 35.8711 140.4078 189° South  Level Estimated
03:07AM 35.7500 140.3834 North  Level Estimated
03:08AM 35.8711 140.4078 189° South  Level Estimated
03:09AM 35.7500 140.3834 North  Level Estimated
03:10AM 35.8711 140.4078 North  Level Estimated